sensor_id;sensor_type;location;lat;lon;timestamp;P1;durP1;ratioP1;P2;durP2;ratioP2
4464;SDS011;2245;48.136;13.428;2023-03-24T00:01:47;3.23;;;2.57;;
4464;SDS011;2245;48.136;13.428;2023-03-24T00:04:14;2.90;;;2.40;;
4464;SDS011;2245;48.136;13.428;2023-03-24T00:06:41;6.87;;;3.73;;
4464;SDS011;2245;48.136;13.428;2023-03-24T00:09:08;3.40;;;3.10;;
4464;SDS011;2245;48.136;13.428;2023-03-24T00:11:37;6.00;;;3.27;;
4464;SDS011;2245;48.136;13.428;2023-03-24T00:14:04;10.83;;;3.07;;
4464;SDS011;2245;48.136;13.428;2023-03-24T00:16:31;8.70;;;3.10;;
4464;SDS011;2245;48.136;13.428;2023-03-24T00:18:59;3.90;;;2.57;;
4464;SDS011;2245;48.136;13.428;2023-03-24T00:21:26;3.83;;;2.80;;
4464;SDS011;2245;48.136;13.428;2023-03-24T00:23:53;5.23;;;2.87;;
4464;SDS011;2245;48.136;13.428;2023-03-24T00:26:22;8.63;;;3.17;;
4464;SDS011;2245;48.136;13.428;2023-03-24T00:28:51;11.23;;;3.00;;
4464;SDS011;2245;48.136;13.428;2023-03-24T00:31:18;5.60;;;3.30;;
4464;SDS011;2245;48.136;13.428;2023-03-24T00:33:46;7.43;;;2.93;;
4464;SDS011;2245;48.136;13.428;2023-03-24T00:36:15;4.10;;;3.30;;
4464;SDS011;2245;48.136;13.428;2023-03-24T00:38:43;5.10;;;2.77;;
4464;SDS011;2245;48.136;13.428;2023-03-24T00:41:12;4.67;;;3.10;;
4464;SDS011;2245;48.136;13.428;2023-03-24T00:43:42;4.70;;;3.53;;
4464;SDS011;2245;48.136;13.428;2023-03-24T00:46:11;5.47;;;3.70;;
4464;SDS011;2245;48.136;13.428;2023-03-24T00:48:52;5.20;;;3.20;;
4464;SDS011;2245;48.136;13.428;2023-03-24T00:51:22;9.33;;;3.10;;
4464;SDS011;2245;48.136;13.428;2023-03-24T00:53:49;4.80;;;2.80;;
4464;SDS011;2245;48.136;13.428;2023-03-24T00:56:22;6.27;;;3.80;;
4464;SDS011;2245;48.136;13.428;2023-03-24T00:58:52;5.77;;;3.23;;
4464;SDS011;2245;48.136;13.428;2023-03-24T01:01:23;4.90;;;3.40;;
4464;SDS011;2245;48.136;13.428;2023-03-24T01:03:51;4.30;;;2.93;;
4464;SDS011;2245;48.136;13.428;2023-03-24T01:06:18;4.37;;;3.17;;
4464;SDS011;2245;48.136;13.428;2023-03-24T01:08:48;3.03;;;2.73;;
4464;SDS011;2245;48.136;13.428;2023-03-24T01:11:18;5.93;;;3.10;;
4464;SDS011;2245;48.136;13.428;2023-03-24T01:13:46;5.20;;;2.90;;
4464;SDS011;2245;48.136;13.428;2023-03-24T01:16:14;9.50;;;2.60;;
4464;SDS011;2245;48.136;13.428;2023-03-24T01:18:43;4.30;;;3.27;;
4464;SDS011;2245;48.136;13.428;2023-03-24T01:21:10;2.97;;;2.50;;
4464;SDS011;2245;48.136;13.428;2023-03-24T01:23:38;3.83;;;2.60;;
4464;SDS011;2245;48.136;13.428;2023-03-24T01:26:08;4.67;;;2.70;;
4464;SDS011;2245;48.136;13.428;2023-03-24T01:28:36;3.60;;;2.70;;
4464;SDS011;2245;48.136;13.428;2023-03-24T01:31:05;3.93;;;2.50;;
4464;SDS011;2245;48.136;13.428;2023-03-24T01:33:34;2.80;;;2.60;;
4464;SDS011;2245;48.136;13.428;2023-03-24T01:36:04;3.90;;;2.90;;
4464;SDS011;2245;48.136;13.428;2023-03-24T01:38:32;10.23;;;3.80;;
4464;SDS011;2245;48.136;13.428;2023-03-24T01:40:59;4.73;;;2.87;;
4464;SDS011;2245;48.136;13.428;2023-03-24T01:43:30;3.30;;;3.00;;
4464;SDS011;2245;48.136;13.428;2023-03-24T01:48:45;3.90;;;3.17;;
4464;SDS011;2245;48.136;13.428;2023-03-24T01:51:19;3.23;;;2.93;;
4464;SDS011;2245;48.136;13.428;2023-03-24T01:53:50;6.57;;;3.60;;
4464;SDS011;2245;48.136;13.428;2023-03-24T01:56:19;8.63;;;3.20;;
4464;SDS011;2245;48.136;13.428;2023-03-24T01:58:47;6.77;;;3.23;;
4464;SDS011;2245;48.136;13.428;2023-03-24T02:01:17;3.77;;;3.13;;
4464;SDS011;2245;48.136;13.428;2023-03-24T02:03:44;4.27;;;3.63;;
4464;SDS011;2245;48.136;13.428;2023-03-24T02:06:11;7.00;;;3.57;;
4464;SDS011;2245;48.136;13.428;2023-03-24T02:08:41;3.37;;;3.00;;
4464;SDS011;2245;48.136;13.428;2023-03-24T02:11:12;4.30;;;3.33;;
4464;SDS011;2245;48.136;13.428;2023-03-24T02:13:39;4.50;;;3.50;;
4464;SDS011;2245;48.136;13.428;2023-03-24T02:16:14;11.10;;;3.50;;
4464;SDS011;2245;48.136;13.428;2023-03-24T02:18:50;10.97;;;4.13;;
4464;SDS011;2245;48.136;13.428;2023-03-24T02:21:31;5.93;;;4.03;;
4464;SDS011;2245;48.136;13.428;2023-03-24T02:27:32;4.83;;;3.83;;
4464;SDS011;2245;48.136;13.428;2023-03-24T02:30:21;7.47;;;4.00;;
4464;SDS011;2245;48.136;13.428;2023-03-24T02:39:24;5.40;;;3.73;;
4464;SDS011;2245;48.136;13.428;2023-03-24T02:42:16;6.47;;;4.60;;
4464;SDS011;2245;48.136;13.428;2023-03-24T02:44:50;5.50;;;4.27;;
4464;SDS011;2245;48.136;13.428;2023-03-24T02:47:23;6.40;;;4.37;;
4464;SDS011;2245;48.136;13.428;2023-03-24T02:49:54;5.90;;;4.00;;
4464;SDS011;2245;48.136;13.428;2023-03-24T02:52:23;7.70;;;3.60;;
4464;SDS011;2245;48.136;13.428;2023-03-24T02:54:59;10.37;;;4.13;;
4464;SDS011;2245;48.136;13.428;2023-03-24T02:57:31;7.13;;;4.50;;
4464;SDS011;2245;48.136;13.428;2023-03-24T03:00:00;7.53;;;4.60;;
4464;SDS011;2245;48.136;13.428;2023-03-24T03:02:33;8.10;;;5.03;;
4464;SDS011;2245;48.136;13.428;2023-03-24T03:05:04;6.70;;;4.17;;
4464;SDS011;2245;48.136;13.428;2023-03-24T03:07:32;7.20;;;3.80;;
4464;SDS011;2245;48.136;13.428;2023-03-24T03:10:04;6.20;;;3.37;;
4464;SDS011;2245;48.136;13.428;2023-03-24T03:12:34;8.00;;;4.20;;
4464;SDS011;2245;48.136;13.428;2023-03-24T03:15:03;3.63;;;2.90;;
4464;SDS011;2245;48.136;13.428;2023-03-24T03:17:34;10.10;;;3.97;;
4464;SDS011;2245;48.136;13.428;2023-03-24T03:20:05;3.70;;;3.20;;
4464;SDS011;2245;48.136;13.428;2023-03-24T03:22:37;6.10;;;4.07;;
4464;SDS011;2245;48.136;13.428;2023-03-24T03:25:08;4.87;;;3.77;;
4464;SDS011;2245;48.136;13.428;2023-03-24T03:27:37;10.03;;;5.00;;
4464;SDS011;2245;48.136;13.428;2023-03-24T03:30:06;8.40;;;4.57;;
4464;SDS011;2245;48.136;13.428;2023-03-24T03:32:38;6.43;;;4.20;;
4464;SDS011;2245;48.136;13.428;2023-03-24T03:35:10;10.03;;;5.07;;
4464;SDS011;2245;48.136;13.428;2023-03-24T03:37:41;7.03;;;4.40;;
4464;SDS011;2245;48.136;13.428;2023-03-24T03:40:15;9.23;;;3.87;;
4464;SDS011;2245;48.136;13.428;2023-03-24T03:42:45;12.57;;;4.40;;
4464;SDS011;2245;48.136;13.428;2023-03-24T03:45:12;9.93;;;4.00;;
4464;SDS011;2245;48.136;13.428;2023-03-24T03:47:39;4.87;;;4.37;;
4464;SDS011;2245;48.136;13.428;2023-03-24T03:50:07;4.13;;;3.73;;
4464;SDS011;2245;48.136;13.428;2023-03-24T03:52:35;5.43;;;3.30;;
4464;SDS011;2245;48.136;13.428;2023-03-24T03:55:04;7.33;;;4.10;;
4464;SDS011;2245;48.136;13.428;2023-03-24T03:57:34;7.97;;;4.90;;
4464;SDS011;2245;48.136;13.428;2023-03-24T04:00:02;5.07;;;4.13;;
4464;SDS011;2245;48.136;13.428;2023-03-24T04:02:34;6.10;;;4.50;;
4464;SDS011;2245;48.136;13.428;2023-03-24T04:05:18;8.43;;;4.47;;
4464;SDS011;2245;48.136;13.428;2023-03-24T04:08:05;7.00;;;4.70;;
4464;SDS011;2245;48.136;13.428;2023-03-24T04:10:42;7.17;;;4.20;;
4464;SDS011;2245;48.136;13.428;2023-03-24T04:13:34;5.93;;;4.10;;
4464;SDS011;2245;48.136;13.428;2023-03-24T04:16:06;5.03;;;4.10;;
4464;SDS011;2245;48.136;13.428;2023-03-24T04:18:40;17.93;;;4.20;;
4464;SDS011;2245;48.136;13.428;2023-03-24T04:21:18;17.50;;;4.30;;
4464;SDS011;2245;48.136;13.428;2023-03-24T04:23:59;17.73;;;4.70;;
4464;SDS011;2245;48.136;13.428;2023-03-24T04:26:34;8.40;;;4.30;;
4464;SDS011;2245;48.136;13.428;2023-03-24T04:29:08;10.77;;;7.10;;
4464;SDS011;2245;48.136;13.428;2023-03-24T04:31:42;21.23;;;5.93;;
4464;SDS011;2245;48.136;13.428;2023-03-24T04:34:15;10.60;;;5.13;;
4464;SDS011;2245;48.136;13.428;2023-03-24T04:36:46;8.40;;;4.77;;
4464;SDS011;2245;48.136;13.428;2023-03-24T04:39:15;7.30;;;4.20;;
4464;SDS011;2245;48.136;13.428;2023-03-24T04:41:49;6.73;;;4.97;;
4464;SDS011;2245;48.136;13.428;2023-03-24T04:44:18;10.30;;;4.33;;
4464;SDS011;2245;48.136;13.428;2023-03-24T04:46:46;6.00;;;4.23;;
4464;SDS011;2245;48.136;13.428;2023-03-24T04:49:13;7.20;;;4.97;;
4464;SDS011;2245;48.136;13.428;2023-03-24T04:51:40;7.07;;;4.13;;
4464;SDS011;2245;48.136;13.428;2023-03-24T04:54:08;8.63;;;5.10;;
4464;SDS011;2245;48.136;13.428;2023-03-24T04:56:37;11.70;;;5.97;;
4464;SDS011;2245;48.136;13.428;2023-03-24T04:59:05;7.93;;;5.33;;
4464;SDS011;2245;48.136;13.428;2023-03-24T05:01:34;7.80;;;5.17;;
4464;SDS011;2245;48.136;13.428;2023-03-24T05:04:02;12.80;;;5.30;;
4464;SDS011;2245;48.136;13.428;2023-03-24T05:06:29;6.33;;;4.67;;
4464;SDS011;2245;48.136;13.428;2023-03-24T05:08:56;5.87;;;4.30;;
4464;SDS011;2245;48.136;13.428;2023-03-24T05:11:24;6.83;;;5.00;;
4464;SDS011;2245;48.136;13.428;2023-03-24T05:13:51;9.60;;;4.53;;
4464;SDS011;2245;48.136;13.428;2023-03-24T05:16:18;11.30;;;5.13;;
4464;SDS011;2245;48.136;13.428;2023-03-24T05:18:47;28.30;;;4.80;;
4464;SDS011;2245;48.136;13.428;2023-03-24T05:21:13;10.00;;;5.30;;
4464;SDS011;2245;48.136;13.428;2023-03-24T05:23:40;10.20;;;6.70;;
4464;SDS011;2245;48.136;13.428;2023-03-24T05:26:07;20.33;;;7.17;;
4464;SDS011;2245;48.136;13.428;2023-03-24T05:28:34;18.73;;;6.80;;
4464;SDS011;2245;48.136;13.428;2023-03-24T05:31:01;10.80;;;5.80;;
4464;SDS011;2245;48.136;13.428;2023-03-24T05:33:28;8.07;;;4.70;;
4464;SDS011;2245;48.136;13.428;2023-03-24T05:35:56;10.37;;;5.80;;
4464;SDS011;2245;48.136;13.428;2023-03-24T05:38:23;12.30;;;5.40;;
4464;SDS011;2245;48.136;13.428;2023-03-24T05:40:50;11.03;;;5.03;;
4464;SDS011;2245;48.136;13.428;2023-03-24T05:43:16;9.60;;;6.20;;
4464;SDS011;2245;48.136;13.428;2023-03-24T05:45:43;40.03;;;17.93;;
4464;SDS011;2245;48.136;13.428;2023-03-24T05:48:10;24.33;;;13.93;;
4464;SDS011;2245;48.136;13.428;2023-03-24T05:50:37;15.40;;;6.17;;
4464;SDS011;2245;48.136;13.428;2023-03-24T05:53:05;11.63;;;5.30;;
4464;SDS011;2245;48.136;13.428;2023-03-24T05:55:32;8.20;;;4.93;;
4464;SDS011;2245;48.136;13.428;2023-03-24T05:58:00;13.90;;;6.90;;
4464;SDS011;2245;48.136;13.428;2023-03-24T06:00:27;7.27;;;5.07;;
4464;SDS011;2245;48.136;13.428;2023-03-24T06:02:55;6.53;;;5.13;;
4464;SDS011;2245;48.136;13.428;2023-03-24T06:05:22;14.40;;;7.63;;
4464;SDS011;2245;48.136;13.428;2023-03-24T06:07:49;16.83;;;8.77;;
4464;SDS011;2245;48.136;13.428;2023-03-24T06:10:17;25.63;;;8.07;;
4464;SDS011;2245;48.136;13.428;2023-03-24T06:12:44;16.20;;;7.13;;
4464;SDS011;2245;48.136;13.428;2023-03-24T06:15:11;15.63;;;8.67;;
4464;SDS011;2245;48.136;13.428;2023-03-24T06:17:41;16.57;;;9.00;;
4464;SDS011;2245;48.136;13.428;2023-03-24T06:20:09;22.00;;;10.80;;
4464;SDS011;2245;48.136;13.428;2023-03-24T06:22:40;30.63;;;13.67;;
4464;SDS011;2245;48.136;13.428;2023-03-24T06:25:09;14.73;;;8.10;;
4464;SDS011;2245;48.136;13.428;2023-03-24T06:27:38;15.30;;;7.10;;
4464;SDS011;2245;48.136;13.428;2023-03-24T06:30:11;23.73;;;9.67;;
4464;SDS011;2245;48.136;13.428;2023-03-24T06:32:39;31.97;;;10.87;;
4464;SDS011;2245;48.136;13.428;2023-03-24T06:35:07;31.57;;;12.70;;
4464;SDS011;2245;48.136;13.428;2023-03-24T06:37:34;23.50;;;9.80;;
4464;SDS011;2245;48.136;13.428;2023-03-24T06:40:01;23.00;;;10.60;;
4464;SDS011;2245;48.136;13.428;2023-03-24T06:42:33;9.90;;;8.00;;
4464;SDS011;2245;48.136;13.428;2023-03-24T06:45:01;16.30;;;7.10;;
4464;SDS011;2245;48.136;13.428;2023-03-24T06:47:28;14.63;;;5.47;;
4464;SDS011;2245;48.136;13.428;2023-03-24T06:49:55;9.60;;;6.10;;
4464;SDS011;2245;48.136;13.428;2023-03-24T06:52:22;9.60;;;4.80;;
4464;SDS011;2245;48.136;13.428;2023-03-24T06:54:51;20.80;;;5.27;;
4464;SDS011;2245;48.136;13.428;2023-03-24T06:57:18;4.97;;;4.10;;
4464;SDS011;2245;48.136;13.428;2023-03-24T06:59:45;10.73;;;6.57;;
4464;SDS011;2245;48.136;13.428;2023-03-24T07:02:14;7.90;;;4.87;;
4464;SDS011;2245;48.136;13.428;2023-03-24T07:04:41;9.80;;;4.90;;
4464;SDS011;2245;48.136;13.428;2023-03-24T07:07:08;16.33;;;11.70;;
4464;SDS011;2245;48.136;13.428;2023-03-24T07:09:34;28.13;;;5.20;;
4464;SDS011;2245;48.136;13.428;2023-03-24T07:12:01;8.00;;;3.97;;
4464;SDS011;2245;48.136;13.428;2023-03-24T07:14:28;5.20;;;3.87;;
4464;SDS011;2245;48.136;13.428;2023-03-24T07:16:55;5.70;;;4.17;;
4464;SDS011;2245;48.136;13.428;2023-03-24T07:19:24;6.50;;;3.40;;
4464;SDS011;2245;48.136;13.428;2023-03-24T07:21:51;4.97;;;3.10;;
4464;SDS011;2245;48.136;13.428;2023-03-24T07:24:18;7.97;;;4.00;;
4464;SDS011;2245;48.136;13.428;2023-03-24T07:26:45;5.83;;;3.13;;
4464;SDS011;2245;48.136;13.428;2023-03-24T07:29:12;6.30;;;3.30;;
4464;SDS011;2245;48.136;13.428;2023-03-24T07:31:38;4.63;;;3.73;;
4464;SDS011;2245;48.136;13.428;2023-03-24T07:34:05;6.93;;;3.60;;
4464;SDS011;2245;48.136;13.428;2023-03-24T07:36:34;6.13;;;4.03;;
4464;SDS011;2245;48.136;13.428;2023-03-24T07:39:01;8.77;;;3.93;;
4464;SDS011;2245;48.136;13.428;2023-03-24T07:41:30;5.20;;;3.60;;
4464;SDS011;2245;48.136;13.428;2023-03-24T07:43:58;5.80;;;3.67;;
4464;SDS011;2245;48.136;13.428;2023-03-24T07:46:25;11.37;;;4.70;;
4464;SDS011;2245;48.136;13.428;2023-03-24T07:48:52;4.30;;;3.37;;
4464;SDS011;2245;48.136;13.428;2023-03-24T07:51:19;11.30;;;5.47;;
4464;SDS011;2245;48.136;13.428;2023-03-24T07:53:47;7.63;;;4.47;;
4464;SDS011;2245;48.136;13.428;2023-03-24T07:56:14;19.67;;;7.77;;
4464;SDS011;2245;48.136;13.428;2023-03-24T07:58:41;13.67;;;7.70;;
4464;SDS011;2245;48.136;13.428;2023-03-24T08:01:08;15.93;;;5.33;;
4464;SDS011;2245;48.136;13.428;2023-03-24T08:03:35;15.20;;;7.63;;
4464;SDS011;2245;48.136;13.428;2023-03-24T08:06:02;35.30;;;23.27;;
4464;SDS011;2245;48.136;13.428;2023-03-24T08:08:29;7.30;;;5.27;;
4464;SDS011;2245;48.136;13.428;2023-03-24T08:10:58;14.37;;;5.73;;
4464;SDS011;2245;48.136;13.428;2023-03-24T08:13:25;19.00;;;7.13;;
4464;SDS011;2245;48.136;13.428;2023-03-24T08:15:52;17.57;;;9.17;;
4464;SDS011;2245;48.136;13.428;2023-03-24T08:18:19;14.97;;;8.60;;
4464;SDS011;2245;48.136;13.428;2023-03-24T08:20:46;22.40;;;10.60;;
4464;SDS011;2245;48.136;13.428;2023-03-24T08:23:13;17.47;;;8.07;;
4464;SDS011;2245;48.136;13.428;2023-03-24T08:25:40;11.20;;;6.73;;
4464;SDS011;2245;48.136;13.428;2023-03-24T08:28:08;24.00;;;12.37;;
4464;SDS011;2245;48.136;13.428;2023-03-24T08:30:35;11.50;;;7.10;;
4464;SDS011;2245;48.136;13.428;2023-03-24T08:33:02;15.10;;;7.20;;
4464;SDS011;2245;48.136;13.428;2023-03-24T08:35:30;29.77;;;12.27;;
4464;SDS011;2245;48.136;13.428;2023-03-24T08:37:59;11.10;;;6.40;;
4464;SDS011;2245;48.136;13.428;2023-03-24T08:40:27;8.10;;;4.93;;
4464;SDS011;2245;48.136;13.428;2023-03-24T08:42:56;7.33;;;4.60;;
4464;SDS011;2245;48.136;13.428;2023-03-24T08:45:26;9.93;;;4.20;;
4464;SDS011;2245;48.136;13.428;2023-03-24T08:47:55;23.37;;;5.17;;
4464;SDS011;2245;48.136;13.428;2023-03-24T08:50:24;9.33;;;5.63;;
4464;SDS011;2245;48.136;13.428;2023-03-24T08:52:53;12.07;;;4.50;;
4464;SDS011;2245;48.136;13.428;2023-03-24T08:55:20;12.43;;;4.43;;
4464;SDS011;2245;48.136;13.428;2023-03-24T08:57:48;11.73;;;7.77;;
4464;SDS011;2245;48.136;13.428;2023-03-24T09:00:15;23.80;;;7.60;;
4464;SDS011;2245;48.136;13.428;2023-03-24T09:02:45;15.20;;;6.60;;
4464;SDS011;2245;48.136;13.428;2023-03-24T09:05:13;13.47;;;6.90;;
4464;SDS011;2245;48.136;13.428;2023-03-24T09:07:43;7.10;;;4.60;;
4464;SDS011;2245;48.136;13.428;2023-03-24T09:10:11;5.17;;;4.13;;
4464;SDS011;2245;48.136;13.428;2023-03-24T09:12:38;7.90;;;4.40;;
4464;SDS011;2245;48.136;13.428;2023-03-24T09:15:07;6.03;;;4.50;;
4464;SDS011;2245;48.136;13.428;2023-03-24T09:17:34;8.20;;;4.90;;
4464;SDS011;2245;48.136;13.428;2023-03-24T09:20:04;7.73;;;4.83;;
4464;SDS011;2245;48.136;13.428;2023-03-24T09:22:32;6.63;;;4.83;;
4464;SDS011;2245;48.136;13.428;2023-03-24T09:25:00;6.20;;;4.80;;
4464;SDS011;2245;48.136;13.428;2023-03-24T09:27:26;7.73;;;4.50;;
4464;SDS011;2245;48.136;13.428;2023-03-24T09:29:53;9.03;;;4.63;;
4464;SDS011;2245;48.136;13.428;2023-03-24T09:32:20;31.93;;;6.23;;
4464;SDS011;2245;48.136;13.428;2023-03-24T09:34:47;5.73;;;4.87;;
4464;SDS011;2245;48.136;13.428;2023-03-24T09:37:15;6.20;;;4.43;;
4464;SDS011;2245;48.136;13.428;2023-03-24T09:39:42;5.53;;;4.83;;
4464;SDS011;2245;48.136;13.428;2023-03-24T09:42:12;11.20;;;4.77;;
4464;SDS011;2245;48.136;13.428;2023-03-24T09:44:43;9.03;;;5.03;;
4464;SDS011;2245;48.136;13.428;2023-03-24T09:47:14;7.20;;;4.93;;
4464;SDS011;2245;48.136;13.428;2023-03-24T09:49:47;7.20;;;5.10;;
4464;SDS011;2245;48.136;13.428;2023-03-24T09:52:17;10.10;;;5.83;;
4464;SDS011;2245;48.136;13.428;2023-03-24T09:54:45;8.80;;;5.80;;
4464;SDS011;2245;48.136;13.428;2023-03-24T09:57:16;10.83;;;4.83;;
4464;SDS011;2245;48.136;13.428;2023-03-24T09:59:45;9.00;;;4.97;;
4464;SDS011;2245;48.136;13.428;2023-03-24T10:02:13;9.40;;;3.90;;
4464;SDS011;2245;48.136;13.428;2023-03-24T10:04:41;17.30;;;6.43;;
4464;SDS011;2245;48.136;13.428;2023-03-24T10:07:08;11.90;;;5.50;;
4464;SDS011;2245;48.136;13.428;2023-03-24T10:09:43;16.50;;;7.50;;
4464;SDS011;2245;48.136;13.428;2023-03-24T10:12:16;8.97;;;5.50;;
4464;SDS011;2245;48.136;13.428;2023-03-24T10:14:51;12.40;;;6.43;;
4464;SDS011;2245;48.136;13.428;2023-03-24T10:17:26;12.30;;;10.47;;
4464;SDS011;2245;48.136;13.428;2023-03-24T10:19:57;13.47;;;7.00;;
4464;SDS011;2245;48.136;13.428;2023-03-24T10:22:31;8.80;;;5.60;;
4464;SDS011;2245;48.136;13.428;2023-03-24T10:25:05;20.63;;;6.07;;
4464;SDS011;2245;48.136;13.428;2023-03-24T10:27:38;11.10;;;6.33;;
4464;SDS011;2245;48.136;13.428;2023-03-24T10:30:10;11.30;;;6.27;;
4464;SDS011;2245;48.136;13.428;2023-03-24T10:32:40;6.40;;;5.40;;
4464;SDS011;2245;48.136;13.428;2023-03-24T10:35:12;8.03;;;5.70;;
4464;SDS011;2245;48.136;13.428;2023-03-24T10:37:41;9.93;;;6.83;;
4464;SDS011;2245;48.136;13.428;2023-03-24T10:40:13;9.70;;;6.60;;
4464;SDS011;2245;48.136;13.428;2023-03-24T10:42:42;9.20;;;5.90;;
4464;SDS011;2245;48.136;13.428;2023-03-24T10:45:11;12.27;;;7.07;;
4464;SDS011;2245;48.136;13.428;2023-03-24T10:47:40;15.03;;;7.30;;
4464;SDS011;2245;48.136;13.428;2023-03-24T10:50:07;14.93;;;6.70;;
4464;SDS011;2245;48.136;13.428;2023-03-24T10:52:39;11.30;;;5.90;;
4464;SDS011;2245;48.136;13.428;2023-03-24T10:55:12;11.90;;;6.80;;
4464;SDS011;2245;48.136;13.428;2023-03-24T10:57:43;10.70;;;6.00;;
4464;SDS011;2245;48.136;13.428;2023-03-24T11:00:15;9.43;;;5.50;;
4464;SDS011;2245;48.136;13.428;2023-03-24T11:02:43;7.17;;;5.67;;
4464;SDS011;2245;48.136;13.428;2023-03-24T11:05:14;8.50;;;4.80;;
4464;SDS011;2245;48.136;13.428;2023-03-24T11:07:43;7.87;;;6.10;;
4464;SDS011;2245;48.136;13.428;2023-03-24T11:10:13;9.60;;;6.10;;
4464;SDS011;2245;48.136;13.428;2023-03-24T11:12:43;15.53;;;5.83;;
4464;SDS011;2245;48.136;13.428;2023-03-24T11:15:27;17.83;;;6.80;;
4464;SDS011;2245;48.136;13.428;2023-03-24T11:17:55;9.73;;;6.57;;
4464;SDS011;2245;48.136;13.428;2023-03-24T11:20:27;25.57;;;7.20;;
4464;SDS011;2245;48.136;13.428;2023-03-24T11:22:56;11.00;;;6.30;;
4464;SDS011;2245;48.136;13.428;2023-03-24T11:25:27;16.07;;;4.60;;
4464;SDS011;2245;48.136;13.428;2023-03-24T11:27:56;13.63;;;5.17;;
4464;SDS011;2245;48.136;13.428;2023-03-24T11:30:25;11.30;;;4.73;;
4464;SDS011;2245;48.136;13.428;2023-03-24T11:32:55;5.90;;;4.00;;
4464;SDS011;2245;48.136;13.428;2023-03-24T11:35:22;4.00;;;3.63;;
4464;SDS011;2245;48.136;13.428;2023-03-24T11:37:49;7.20;;;3.93;;
4464;SDS011;2245;48.136;13.428;2023-03-24T11:40:18;19.33;;;4.30;;
4464;SDS011;2245;48.136;13.428;2023-03-24T11:42:48;20.70;;;3.70;;
4464;SDS011;2245;48.136;13.428;2023-03-24T11:45:21;7.50;;;3.37;;
4464;SDS011;2245;48.136;13.428;2023-03-24T11:47:50;8.70;;;3.70;;
4464;SDS011;2245;48.136;13.428;2023-03-24T11:50:22;5.03;;;2.90;;
4464;SDS011;2245;48.136;13.428;2023-03-24T11:52:51;5.83;;;3.17;;
4464;SDS011;2245;48.136;13.428;2023-03-24T11:55:22;7.63;;;4.27;;
4464;SDS011;2245;48.136;13.428;2023-03-24T11:57:55;5.43;;;4.40;;
4464;SDS011;2245;48.136;13.428;2023-03-24T12:00:26;3.20;;;2.90;;
4464;SDS011;2245;48.136;13.428;2023-03-24T12:03:01;7.03;;;4.17;;
4464;SDS011;2245;48.136;13.428;2023-03-24T12:05:39;5.67;;;4.40;;
4464;SDS011;2245;48.136;13.428;2023-03-24T12:08:13;7.03;;;4.20;;
4464;SDS011;2245;48.136;13.428;2023-03-24T12:10:49;5.13;;;4.00;;
4464;SDS011;2245;48.136;13.428;2023-03-24T12:13:29;6.60;;;4.63;;
4464;SDS011;2245;48.136;13.428;2023-03-24T12:15:59;5.97;;;5.00;;
4464;SDS011;2245;48.136;13.428;2023-03-24T12:18:36;9.33;;;3.90;;
4464;SDS011;2245;48.136;13.428;2023-03-24T12:21:11;6.50;;;4.63;;
4464;SDS011;2245;48.136;13.428;2023-03-24T12:23:43;6.87;;;4.77;;
4464;SDS011;2245;48.136;13.428;2023-03-24T12:26:17;6.33;;;4.93;;
4464;SDS011;2245;48.136;13.428;2023-03-24T12:37:32;10.80;;;6.37;;
4464;SDS011;2245;48.136;13.428;2023-03-24T12:42:59;14.20;;;5.60;;
4464;SDS011;2245;48.136;13.428;2023-03-24T12:45:33;8.27;;;5.70;;
4464;SDS011;2245;48.136;13.428;2023-03-24T12:48:11;8.50;;;6.23;;
4464;SDS011;2245;48.136;13.428;2023-03-24T12:50:48;10.73;;;6.43;;
4464;SDS011;2245;48.136;13.428;2023-03-24T12:53:28;8.13;;;6.00;;
4464;SDS011;2245;48.136;13.428;2023-03-24T12:56:07;8.07;;;6.03;;
4464;SDS011;2245;48.136;13.428;2023-03-24T12:58:37;7.70;;;6.03;;
4464;SDS011;2245;48.136;13.428;2023-03-24T13:01:09;12.00;;;6.13;;
4464;SDS011;2245;48.136;13.428;2023-03-24T13:03:41;10.77;;;7.33;;
4464;SDS011;2245;48.136;13.428;2023-03-24T13:06:12;6.53;;;4.20;;
4464;SDS011;2245;48.136;13.428;2023-03-24T13:08:44;11.40;;;4.23;;
4464;SDS011;2245;48.136;13.428;2023-03-24T13:11:17;6.93;;;5.43;;
4464;SDS011;2245;48.136;13.428;2023-03-24T13:13:46;4.63;;;4.23;;
4464;SDS011;2245;48.136;13.428;2023-03-24T13:16:14;6.30;;;4.30;;
4464;SDS011;2245;48.136;13.428;2023-03-24T13:18:45;7.47;;;4.63;;
4464;SDS011;2245;48.136;13.428;2023-03-24T13:21:13;6.20;;;4.70;;
4464;SDS011;2245;48.136;13.428;2023-03-24T13:23:47;7.60;;;5.20;;
4464;SDS011;2245;48.136;13.428;2023-03-24T13:26:21;4.80;;;3.80;;
4464;SDS011;2245;48.136;13.428;2023-03-24T13:28:59;8.07;;;4.40;;
4464;SDS011;2245;48.136;13.428;2023-03-24T13:31:33;6.07;;;4.10;;
4464;SDS011;2245;48.136;13.428;2023-03-24T13:34:04;6.90;;;4.60;;
4464;SDS011;2245;48.136;13.428;2023-03-24T13:36:41;8.40;;;4.90;;
4464;SDS011;2245;48.136;13.428;2023-03-24T13:39:10;4.93;;;3.90;;
4464;SDS011;2245;48.136;13.428;2023-03-24T13:41:40;4.40;;;3.50;;
4464;SDS011;2245;48.136;13.428;2023-03-24T13:44:15;3.70;;;3.23;;
4464;SDS011;2245;48.136;13.428;2023-03-24T13:46:43;5.83;;;4.40;;
4464;SDS011;2245;48.136;13.428;2023-03-24T13:49:31;7.83;;;3.70;;
4464;SDS011;2245;48.136;13.428;2023-03-24T13:52:01;7.40;;;4.10;;
4464;SDS011;2245;48.136;13.428;2023-03-24T13:54:30;8.80;;;5.60;;
4464;SDS011;2245;48.136;13.428;2023-03-24T13:57:00;7.20;;;4.80;;
4464;SDS011;2245;48.136;13.428;2023-03-24T13:59:29;7.67;;;4.90;;
4464;SDS011;2245;48.136;13.428;2023-03-24T14:04:49;7.63;;;4.80;;
4464;SDS011;2245;48.136;13.428;2023-03-24T14:07:29;7.57;;;4.73;;
4464;SDS011;2245;48.136;13.428;2023-03-24T14:09:58;7.37;;;5.07;;
4464;SDS011;2245;48.136;13.428;2023-03-24T14:12:26;5.17;;;4.37;;
4464;SDS011;2245;48.136;13.428;2023-03-24T14:17:45;6.10;;;3.87;;
4464;SDS011;2245;48.136;13.428;2023-03-24T14:20:25;5.30;;;4.27;;
4464;SDS011;2245;48.136;13.428;2023-03-24T14:22:54;10.60;;;7.00;;
4464;SDS011;2245;48.136;13.428;2023-03-24T14:25:22;8.77;;;5.73;;
4464;SDS011;2245;48.136;13.428;2023-03-24T14:27:51;7.70;;;5.10;;
4464;SDS011;2245;48.136;13.428;2023-03-24T14:30:19;8.30;;;5.30;;
4464;SDS011;2245;48.136;13.428;2023-03-24T14:32:47;21.50;;;9.47;;
4464;SDS011;2245;48.136;13.428;2023-03-24T14:35:28;7.70;;;5.80;;
4464;SDS011;2245;48.136;13.428;2023-03-24T14:37:59;12.13;;;7.23;;
4464;SDS011;2245;48.136;13.428;2023-03-24T14:40:31;9.80;;;5.90;;
4464;SDS011;2245;48.136;13.428;2023-03-24T14:43:04;11.70;;;6.50;;
4464;SDS011;2245;48.136;13.428;2023-03-24T14:45:50;14.07;;;8.30;;
4464;SDS011;2245;48.136;13.428;2023-03-24T14:48:26;11.23;;;6.53;;
4464;SDS011;2245;48.136;13.428;2023-03-24T14:50:59;20.37;;;8.10;;
4464;SDS011;2245;48.136;13.428;2023-03-24T14:53:39;12.40;;;7.00;;
4464;SDS011;2245;48.136;13.428;2023-03-24T14:56:08;14.83;;;8.07;;
4464;SDS011;2245;48.136;13.428;2023-03-24T14:58:40;13.83;;;8.43;;
4464;SDS011;2245;48.136;13.428;2023-03-24T15:01:08;11.73;;;7.63;;
4464;SDS011;2245;48.136;13.428;2023-03-24T15:03:38;10.03;;;6.93;;
4464;SDS011;2245;48.136;13.428;2023-03-24T15:06:14;10.23;;;6.93;;
4464;SDS011;2245;48.136;13.428;2023-03-24T15:08:43;11.63;;;6.57;;
4464;SDS011;2245;48.136;13.428;2023-03-24T15:11:12;7.23;;;6.07;;
4464;SDS011;2245;48.136;13.428;2023-03-24T15:13:41;8.53;;;6.03;;
4464;SDS011;2245;48.136;13.428;2023-03-24T15:16:15;10.47;;;6.53;;
4464;SDS011;2245;48.136;13.428;2023-03-24T15:18:44;9.77;;;6.40;;
4464;SDS011;2245;48.136;13.428;2023-03-24T15:21:14;6.93;;;5.87;;
4464;SDS011;2245;48.136;13.428;2023-03-24T15:23:45;11.23;;;6.50;;
4464;SDS011;2245;48.136;13.428;2023-03-24T15:26:12;11.33;;;6.63;;
4464;SDS011;2245;48.136;13.428;2023-03-24T15:28:40;7.57;;;6.07;;
4464;SDS011;2245;48.136;13.428;2023-03-24T15:31:07;8.40;;;5.90;;
4464;SDS011;2245;48.136;13.428;2023-03-24T15:33:37;12.53;;;6.60;;
4464;SDS011;2245;48.136;13.428;2023-03-24T15:36:07;7.83;;;6.30;;
4464;SDS011;2245;48.136;13.428;2023-03-24T15:38:43;12.90;;;7.47;;
4464;SDS011;2245;48.136;13.428;2023-03-24T15:41:11;11.13;;;6.80;;
4464;SDS011;2245;48.136;13.428;2023-03-24T15:43:40;10.17;;;6.60;;